Terminal Aerodrome Forecast
Issued by NWS Pendleton, OR

Home | Current Version | Previous Version | Text Only | Print | Product List | Glossary On
Versions: 1 2 3 4 5 6 7 8 9 10 11 12 13 14 15 16 17 18 19 20 21 22 23
000
FTUS46 KPDT 280600 AAA
TAFPDT
TAF AMD
KPDT 280619Z 2806/2906 15004KT P6SM BKN025 OVC120
     FM281400 15005KT P6SM BKN025 OVC035
     FM282000 32005KT P6SM BKN035 OVC100
     FM290300 03003KT 5SM BR SCT015 OVC030=

USA.gov is the U.S. government's official web portal to all federal, state and local government web resources and services.